Time;durP1;ratioP1;P1;durP2;ratioP2;P2;SDS_P1;SDS_P2;PMS_P1;PMS_P2;Temp;Humidity;BMP_temperature;BMP_pressure;BME280_temperature;BME280_humidity;BME280_pressure;Samples;Min_cycle;Max_cycle;Signal;HPM_P1;HPM_P2
2022/08/05 00:02:22;;;;;;;0.32;0.32;;;17.80;99.90;;;;;;5049919;28;19928;-72
2022/08/05 00:04:48;;;;;;;;;;;18.00;99.90;;;;;;5063054;28;20493;-73
2022/08/05 00:07:14;;;;;;;0.30;0.30;;;17.80;99.90;;;;;;5050765;28;19939;-72
2022/08/05 00:09:40;;;;;;;;;;;18.00;99.90;;;;;;5043754;28;20041;-72
2022/08/05 00:12:06;;;;;;;0.22;0.22;;;17.90;99.90;;;;;;5051556;28;19925;-73
2022/08/05 00:14:32;;;;;;;0.20;0.20;;;17.80;99.90;;;;;;5063461;28;20033;-73
2022/08/05 00:16:58;;;;;;;0.38;0.38;;;17.70;99.90;;;;;;5040022;28;20092;-72
2022/08/05 00:19:24;;;;;;;0.20;0.20;;;17.90;99.90;;;;;;5050709;28;20056;-73
2022/08/05 00:21:50;;;;;;;;;;;18.10;99.90;;;;;;5068919;28;20045;-73
2022/08/05 00:24:16;;;;;;;0.20;0.20;;;18.00;99.90;;;;;;5050412;28;19917;-72
2022/08/05 00:26:41;;;;;;;;;;;17.80;99.90;;;;;;5052601;28;20090;-73
2022/08/05 00:29:07;;;;;;;0.20;0.20;;;18.10;99.90;;;;;;5050210;28;20020;-73
2022/08/05 00:31:33;;;;;;;;;;;17.70;99.90;;;;;;5049970;28;20052;-72
2022/08/05 00:33:58;;;;;;;0.20;0.20;;;17.80;99.90;;;;;;5049504;28;20488;-72
2022/08/05 00:36:24;;;;;;;;;;;17.70;99.90;;;;;;5050752;28;20045;-73
2022/08/05 00:38:50;;;;;;;0.30;0.30;;;17.70;99.90;;;;;;5050960;28;19973;-73
2022/08/05 00:41:30;;;;;;;0.30;0.30;;;17.70;99.90;;;;;;5062045;28;20048;-73
2022/08/05 00:43:56;;;;;;;0.90;0.50;;;17.70;99.90;;;;;;5056185;28;20080;-73
2022/08/05 00:46:21;;;;;;;;;;;17.70;99.90;;;;;;5063085;28;20561;-73
2022/08/05 00:48:47;;;;;;;0.17;0.17;;;17.70;99.90;;;;;;5055466;28;19978;-73
2022/08/05 00:51:13;;;;;;;;;;;17.60;99.90;;;;;;5063707;28;20478;-72
2022/08/05 00:53:39;;;;;;;0.25;0.25;;;17.50;99.90;;;;;;5067075;28;19935;-72
2022/08/05 00:56:05;;;;;;;;;;;17.40;99.90;;;;;;5068136;28;20036;-72
2022/08/05 00:58:31;;;;;;;0.70;0.70;;;17.60;99.90;;;;;;5057204;28;19916;-72
2022/08/05 01:00:56;;;;;;;;;;;17.60;99.90;;;;;;5046088;28;20039;-72
2022/08/05 01:03:23;;;;;;;0.40;0.30;;;17.30;99.90;;;;;;5058033;28;19927;-73
2022/08/05 01:05:49;;;;;;;0.55;0.55;;;17.40;99.90;;;;;;5055323;28;20080;-72
2022/08/05 01:08:15;;;;;;;0.30;0.30;;;17.30;99.90;;;;;;5053746;28;20383;-73
2022/08/05 01:10:43;;;;;;;;;;;17.40;99.90;;;;;;5049993;28;20052;-72
2022/08/05 01:13:22;;;;;;;0.20;0.20;;;17.30;99.90;;;;;;5059781;28;19925;-72
2022/08/05 01:15:58;;;;;;;0.85;0.85;;;17.50;99.90;;;;;;5049538;28;20040;-72
2022/08/05 01:18:27;;;;;;;0.30;0.30;;;17.50;99.90;;;;;;5025058;28;20091;-72
2022/08/05 01:21:22;;;;;;;0.30;0.30;;;17.50;99.90;;;;;;5060783;28;20099;-72
2022/08/05 01:24:07;;;;;;;0.20;0.20;;;17.30;99.90;;;;;;5042747;28;20611;-72
2022/08/05 01:26:54;;;;;;;0.40;0.40;;;17.30;99.90;;;;;;5049839;28;20037;-73
2022/08/05 01:29:28;;;;;;;0.20;0.20;;;17.50;99.90;;;;;;5038924;28;20106;-73
2022/08/05 01:32:01;;;;;;;0.40;0.40;;;17.50;99.90;;;;;;5049414;28;20064;-72
2022/08/05 01:34:33;;;;;;;0.40;0.40;;;17.60;99.90;;;;;;5050414;28;20364;-72
2022/08/05 01:37:13;;;;;;;0.20;0.20;;;17.40;99.90;;;;;;5030414;28;20041;-72
2022/08/05 01:39:43;;;;;;;0.32;0.32;;;17.60;99.90;;;;;;5049082;28;20251;-73
2022/08/05 01:42:12;;;;;;;0.30;0.30;;;17.60;99.90;;;;;;5056472;28;20404;-73
2022/08/05 01:44:38;;;;;;;0.73;0.73;;;17.70;99.90;;;;;;5066579;28;20297;-73
2022/08/05 01:47:05;;;;;;;1.35;0.38;;;17.40;99.90;;;;;;5053694;28;20135;-73
2022/08/05 01:49:33;;;;;;;0.40;0.40;;;17.60;99.90;;;;;;5049561;28;20132;-72
2022/08/05 01:52:01;;;;;;;0.35;0.35;;;17.40;99.90;;;;;;5060580;28;20060;-73
2022/08/05 01:54:38;;;;;;;0.25;0.25;;;17.50;99.90;;;;;;5061018;28;20128;-73
2022/08/05 01:57:05;;;;;;;0.20;0.20;;;17.60;99.90;;;;;;5058355;28;20044;-73
2022/08/05 01:59:33;;;;;;;0.35;0.35;;;17.40;99.90;;;;;;5056336;28;20035;-73
2022/08/05 02:02:00;;;;;;;0.40;0.40;;;17.60;99.90;;;;;;5057292;28;20405;-73
2022/08/05 02:04:28;;;;;;;0.20;0.20;;;17.70;99.90;;;;;;5052621;28;20056;-73
2022/08/05 02:06:56;;;;;;;0.35;0.35;;;17.50;99.90;;;;;;5058355;28;20359;-72
2022/08/05 02:09:22;;;;;;;0.30;0.30;;;17.50;99.90;;;;;;5046056;28;20041;-73
2022/08/05 02:11:54;;;;;;;;;;;17.50;99.90;;;;;;5060875;28;20416;-73
2022/08/05 02:14:48;;;;;;;0.82;0.70;;;17.40;99.90;;;;;;5062038;28;20007;-73
2022/08/05 02:17:27;;;;;;;1.35;1.35;;;17.40;99.90;;;;;;5035876;28;20490;-73
2022/08/05 02:19:59;;;;;;;0.20;0.20;;;17.50;99.90;;;;;;5049603;28;20124;-73
2022/08/05 02:22:29;;;;;;;0.17;0.17;;;17.50;99.90;;;;;;5053668;28;20044;-73
2022/08/05 02:25:02;;;;;;;0.32;0.32;;;17.50;99.90;;;;;;5049034;28;20449;-73
2022/08/05 02:27:31;;;;;;;0.82;0.50;;;17.20;99.90;;;;;;5049247;28;20049;-73
2022/08/05 02:30:00;;;;;;;0.25;0.25;;;17.50;99.90;;;;;;5052345;28;20057;-72
2022/08/05 02:32:29;;;;;;;0.77;0.60;;;17.60;99.90;;;;;;5062669;28;20037;-73
2022/08/05 02:34:58;;;;;;;0.40;0.40;;;17.30;99.90;;;;;;5049687;28;20051;-72
2022/08/05 02:37:26;;;;;;;0.47;0.40;;;17.50;99.90;;;;;;5046766;28;20051;-73
2022/08/05 02:39:53;;;;;;;0.20;0.20;;;17.20;99.90;;;;;;5052564;28;20050;-72
2022/08/05 02:42:19;;;;;;;0.20;0.20;;;17.20;99.90;;;;;;5051822;28;20547;-71
2022/08/05 02:44:46;;;;;;;0.30;0.30;;;17.40;99.90;;;;;;5052298;28;20378;-72
2022/08/05 02:47:14;;;;;;;0.20;0.20;;;17.30;99.90;;;;;;5051975;28;20045;-72
2022/08/05 02:49:43;;;;;;;0.30;0.30;;;17.10;99.90;;;;;;5052980;28;20084;-72
2022/08/05 02:52:13;;;;;;;0.30;0.30;;;17.20;99.90;;;;;;5070645;28;20124;-72
2022/08/05 02:54:41;;;;;;;0.85;0.40;;;17.20;99.90;;;;;;5055462;28;20044;-72
2022/08/05 02:57:13;;;;;;;0.30;0.30;;;17.30;99.90;;;;;;5069410;28;20036;-72
2022/08/05 02:59:47;;;;;;;1.80;1.23;;;17.10;99.90;;;;;;5059814;28;20041;-71
2022/08/05 03:02:14;;;;;;;0.38;0.38;;;17.20;99.90;;;;;;5051346;28;20071;-72
2022/08/05 03:04:41;;;;;;;0.45;0.45;;;17.50;99.90;;;;;;5066239;28;20053;-71
2022/08/05 03:07:08;;;;;;;1.65;1.30;;;17.20;99.90;;;;;;5055435;28;20049;-72
2022/08/05 03:09:35;;;;;;;0.30;0.30;;;17.30;99.90;;;;;;5067182;28;20041;-71
2022/08/05 03:12:01;;;;;;;0.20;0.20;;;17.50;99.90;;;;;;5068877;28;20044;-72
2022/08/05 03:14:26;;;;;;;;;;;17.20;99.90;;;;;;5068644;28;20478;-71
2022/08/05 03:16:52;;;;;;;0.38;0.38;;;17.20;99.90;;;;;;5039695;28;19924;-72
2022/08/05 03:19:18;;;;;;;0.68;0.68;;;17.20;99.90;;;;;;5052196;28;20052;-72
2022/08/05 03:21:44;;;;;;;;;;;17.40;99.90;;;;;;5052709;28;20053;-71
2022/08/05 03:24:10;;;;;;;0.30;0.30;;;17.50;99.90;;;;;;5045663;28;19975;-71
2022/08/05 03:26:36;;;;;;;0.15;0.15;;;17.40;99.90;;;;;;5044238;28;20048;-71
2022/08/05 03:29:03;;;;;;;4.65;1.17;;;17.40;99.90;;;;;;5052209;28;20059;-71
2022/08/05 03:31:29;;;;;;;0.15;0.15;;;17.40;99.90;;;;;;5035175;28;20482;-72
2022/08/05 03:33:56;;;;;;;0.57;0.57;;;17.20;99.90;;;;;;5051399;28;20091;-73
2022/08/05 03:36:23;;;;;;;0.40;0.40;;;17.20;99.90;;;;;;5049641;28;20048;-71
2022/08/05 03:38:48;;;;;;;0.20;0.20;;;17.20;99.90;;;;;;5082964;28;20052;-72
2022/08/05 03:41:17;;;;;;;;;;;17.10;99.90;;;;;;5063557;28;20045;-72
2022/08/05 03:43:43;;;;;;;0.20;0.20;;;17.30;99.90;;;;;;5056982;28;19939;-72
2022/08/05 03:46:09;;;;;;;;;;;17.30;99.90;;;;;;5057200;28;20100;-72
2022/08/05 03:48:34;;;;;;;1.13;0.70;;;17.20;99.90;;;;;;5056229;28;19923;-71
2022/08/05 03:51:01;;;;;;;;;;;17.00;99.90;;;;;;5051560;28;20041;-71
2022/08/05 03:53:53;;;;;;;0.20;0.20;;;17.30;99.90;;;;;;5062456;28;20007;-71
2022/08/05 03:56:27;;;;;;;0.22;0.22;;;17.10;99.90;;;;;;5070944;28;20054;-72
2022/08/05 03:58:58;;;;;;;0.22;0.22;;;17.10;99.90;;;;;;5041604;28;20051;-71
2022/08/05 04:01:26;;;;;;;0.40;0.40;;;17.10;99.90;;;;;;5045584;28;20534;-71
2022/08/05 04:03:54;;;;;;;0.30;0.30;;;17.10;99.90;;;;;;5049676;28;20053;-72
2022/08/05 04:06:20;;;;;;;0.40;0.40;;;17.20;99.90;;;;;;5050214;28;20045;-72
2022/08/05 04:08:46;;;;;;;;;;;17.10;99.90;;;;;;5042807;28;20382;-72
2022/08/05 04:11:12;;;;;;;0.30;0.30;;;17.00;99.90;;;;;;5049678;28;19916;-72
2022/08/05 04:13:39;;;;;;;;;;;17.10;99.90;;;;;;5080209;28;20102;-72
2022/08/05 04:16:07;;;;;;;0.30;0.30;;;17.20;99.90;;;;;;5049434;28;20007;-72
2022/08/05 04:18:33;;;;;;;0.88;0.85;;;17.00;99.90;;;;;;5045658;28;20084;-72
2022/08/05 04:20:59;;;;;;;0.38;0.38;;;17.00;99.90;;;;;;5053506;28;20144;-72
2022/08/05 04:23:26;;;;;;;;;;;17.00;99.90;;;;;;5052857;28;20533;-72
2022/08/05 04:25:51;;;;;;;0.57;0.43;;;16.90;99.90;;;;;;5034073;28;20289;-72
2022/08/05 04:28:17;;;;;;;;;;;17.10;99.90;;;;;;5051954;28;20047;-72
2022/08/05 04:30:44;;;;;;;0.32;0.32;;;16.70;99.90;;;;;;5050283;28;20023;-72
2022/08/05 04:33:10;;;;;;;2.33;1.00;;;16.90;99.90;;;;;;5065710;28;20133;-72
2022/08/05 04:35:35;;;;;;;;;;;17.00;99.90;;;;;;5051279;28;20049;-72
2022/08/05 04:38:01;;;;;;;0.22;0.22;;;17.00;99.90;;;;;;5048405;28;19952;-72
2022/08/05 04:40:26;;;;;;;;;;;16.90;99.90;;;;;;5050370;28;20048;-72
2022/08/05 04:42:52;;;;;;;0.20;0.20;;;16.70;99.90;;;;;;5050488;28;19920;-72
2022/08/05 04:45:18;;;;;;;;;;;16.80;99.90;;;;;;5062553;28;20040;-72
2022/08/05 04:47:43;;;;;;;0.20;0.20;;;17.00;99.90;;;;;;5049683;28;19921;-72
2022/08/05 04:50:09;;;;;;;;;;;16.70;99.90;;;;;;5034084;28;20059;-72
2022/08/05 04:52:34;;;;;;;0.20;0.20;;;16.90;99.90;;;;;;5049404;28;19928;-72
2022/08/05 04:55:00;;;;;;;;;;;16.90;99.90;;;;;;5050078;28;20040;-72
2022/08/05 04:57:26;;;;;;;0.60;0.60;;;17.00;99.90;;;;;;5049698;28;19917;-72
2022/08/05 04:59:51;;;;;;;;;;;16.80;99.90;;;;;;5048847;28;20073;-72
2022/08/05 05:02:17;;;;;;;0.40;0.38;;;17.10;99.90;;;;;;5061093;28;19920;-71
2022/08/05 05:04:43;;;;;;;;;;;17.20;99.90;;;;;;5051164;28;20047;-71
2022/08/05 05:07:08;;;;;;;0.25;0.25;;;17.00;99.90;;;;;;5055216;28;19921;-71
2022/08/05 05:09:34;;;;;;;;;;;17.00;99.90;;;;;;5032764;28;20048;-71
2022/08/05 05:12:00;;;;;;;0.32;0.32;;;16.90;99.90;;;;;;5044698;28;19925;-72
2022/08/05 05:14:26;;;;;;;0.20;0.20;;;17.30;99.90;;;;;;5038236;28;20505;-72
2022/08/05 05:16:51;;;;;;;;;;;17.30;99.90;;;;;;5039938;28;20045;-72
2022/08/05 05:19:17;;;;;;;0.30;0.30;;;17.20;99.90;;;;;;5034301;28;20343;-72
2022/08/05 05:21:43;;;;;;;;;;;17.20;99.90;;;;;;5038412;28;20045;-72
2022/08/05 05:24:09;;;;;;;0.20;0.20;;;17.00;99.90;;;;;;5052605;28;19974;-72
2022/08/05 05:26:34;;;;;;;;;;;16.90;99.90;;;;;;5050473;28;20040;-72
2022/08/05 05:29:00;;;;;;;0.32;0.32;;;17.10;99.90;;;;;;5034045;28;19930;-72
2022/08/05 05:31:26;;;;;;;;;;;16.90;99.90;;;;;;5032980;28;20059;-72
2022/08/05 05:33:52;;;;;;;0.30;0.30;;;17.20;99.90;;;;;;5048964;28;19917;-73
2022/08/05 05:36:17;;;;;;;;;;;16.90;99.90;;;;;;5048563;28;20037;-72
2022/08/05 05:38:43;;;;;;;0.40;0.40;;;16.80;99.90;;;;;;5076484;28;19916;-72
2022/08/05 05:41:08;;;;;;;;;;;16.70;99.90;;;;;;5044143;28;20076;-72
2022/08/05 05:43:34;;;;;;;0.40;0.40;;;17.00;99.90;;;;;;5063161;28;19917;-72
2022/08/05 05:46:00;;;;;;;;;;;16.70;99.90;;;;;;5066401;28;20056;-72
2022/08/05 05:48:25;;;;;;;0.30;0.30;;;16.70;99.90;;;;;;5048842;28;19995;-72
2022/08/05 05:50:51;;;;;;;;;;;16.90;99.90;;;;;;5049826;28;20086;-72
2022/08/05 05:53:17;;;;;;;0.30;0.30;;;16.60;99.90;;;;;;5049332;28;19928;-72
2022/08/05 05:55:42;;;;;;;;;;;16.50;99.90;;;;;;5032627;28;20045;-71
2022/08/05 05:58:08;;;;;;;0.70;0.70;;;16.60;99.90;;;;;;5066976;28;19927;-72
2022/08/05 06:00:33;;;;;;;;;;;16.70;99.90;;;;;;5057907;28;20045;-71
2022/08/05 06:03:01;;;;;;;0.30;0.30;;;16.60;99.90;;;;;;5059551;28;19921;-72
2022/08/05 06:05:27;;;;;;;0.40;0.30;;;16.60;99.90;;;;;;5049299;28;20045;-72
2022/08/05 06:07:52;;;;;;;0.35;0.35;;;16.40;99.90;;;;;;5031538;28;20540;-72
2022/08/05 06:10:18;;;;;;;;;;;16.60;99.90;;;;;;5050090;28;20048;-72
2022/08/05 06:12:43;;;;;;;0.22;0.22;;;16.60;99.90;;;;;;5058714;28;20011;-72
2022/08/05 06:15:09;;;;;;;;;;;16.70;99.90;;;;;;5064250;28;20529;-72
2022/08/05 06:17:35;;;;;;;0.25;0.25;;;17.00;99.90;;;;;;5025291;28;19916;-72
2022/08/05 06:20:01;;;;;;;0.38;0.38;;;17.10;99.90;;;;;;5069182;28;20037;-74
2022/08/05 06:22:32;;;;;;;;;;;17.10;99.90;;;;;;5041643;28;20541;-74
2022/08/05 06:24:58;;;;;;;0.20;0.20;;;17.20;99.90;;;;;;5052245;28;20058;-72
2022/08/05 06:27:23;;;;;;;;;;;17.30;99.90;;;;;;5036138;28;20135;-74
2022/08/05 06:29:50;;;;;;;0.30;0.30;;;17.30;99.90;;;;;;5053069;28;19925;-73
2022/08/05 06:32:18;;;;;;;0.25;0.25;;;17.50;99.90;;;;;;5034229;28;20067;-72
2022/08/05 06:34:43;;;;;;;0.32;0.32;;;17.50;99.90;;;;;;5052321;28;20060;-73
2022/08/05 06:37:10;;;;;;;;;;;17.50;99.90;;;;;;5052843;28;20444;-73
2022/08/05 06:39:38;;;;;;;0.45;0.45;;;18.00;99.90;;;;;;5054129;28;19916;-71
2022/08/05 06:42:04;;;;;;;0.40;0.40;;;17.90;99.90;;;;;;5065611;28;20422;-74
2022/08/05 06:44:30;;;;;;;0.13;0.13;;;17.80;99.90;;;;;;5054275;28;20166;-73
2022/08/05 06:47:04;;;;;;;1.90;1.80;;;18.10;99.90;;;;;;5041609;28;20397;-72
2022/08/05 06:49:30;;;;;;;;;;;18.10;99.90;;;;;;5019794;28;20132;-73
2022/08/05 06:51:55;;;;;;;0.32;0.32;;;18.40;99.90;;;;;;5047333;28;19920;-72
2022/08/05 06:54:21;;;;;;;;;;;18.40;99.90;;;;;;5052774;28;20037;-72
2022/08/05 06:56:47;;;;;;;0.32;0.32;;;18.60;99.90;;;;;;5070326;28;19999;-71
2022/08/05 06:59:13;;;;;;;;;;;18.80;99.90;;;;;;5041611;28;20037;-72
2022/08/05 07:01:40;;;;;;;0.90;0.90;;;19.00;99.90;;;;;;5065017;28;19917;-72
2022/08/05 07:04:05;;;;;;;0.47;0.40;;;18.80;99.90;;;;;;5053138;28;20111;-73
2022/08/05 07:06:31;;;;;;;;;;;18.80;99.90;;;;;;5063790;28;20045;-72
2022/08/05 07:08:56;;;;;;;0.20;0.20;;;18.80;99.90;;;;;;5051477;28;19923;-73
2022/08/05 07:11:22;;;;;;;;;;;18.90;99.90;;;;;;5069143;28;20056;-73
2022/08/05 07:16:51;;;;;;;5.57;1.02;;;19.10;99.90;;;;;;5043904;28;20459;-72
2022/08/05 07:19:20;;;;;;;0.30;0.30;;;19.20;99.90;;;;;;5052839;28;20482;-72
2022/08/05 07:21:47;;;;;;;0.30;0.30;;;19.50;99.90;;;;;;5051544;28;20037;-72
2022/08/05 07:24:14;;;;;;;0.60;0.60;;;19.90;99.90;;;;;;5036110;28;20041;-74
2022/08/05 07:26:41;;;;;;;0.30;0.30;;;19.90;99.90;;;;;;5055880;28;20088;-72
2022/08/05 07:29:07;;;;;;;0.20;0.20;;;20.10;99.90;;;;;;5054138;28;20103;-72
2022/08/05 07:31:33;;;;;;;0.30;0.30;;;20.20;99.90;;;;;;5050763;28;20088;-72
2022/08/05 07:33:59;;;;;;;0.60;0.60;;;20.20;99.90;;;;;;5050659;28;20083;-72
2022/08/05 07:36:25;;;;;;;0.43;0.43;;;20.20;99.90;;;;;;5035419;28;20041;-74
2022/08/05 07:38:51;;;;;;;0.20;0.20;;;20.40;99.90;;;;;;5051041;28;20045;-73
2022/08/05 07:41:20;;;;;;;0.20;0.20;;;20.40;99.90;;;;;;5063148;28;20036;-72
2022/08/05 07:43:46;;;;;;;0.38;0.38;;;20.50;99.90;;;;;;5052452;28;20116;-72
2022/08/05 07:46:12;;;;;;;0.32;0.32;;;20.30;99.90;;;;;;5050890;28;20068;-72
2022/08/05 07:48:38;;;;;;;0.30;0.30;;;20.40;99.90;;;;;;5055865;28;20041;-72
2022/08/05 07:51:04;;;;;;;0.40;0.40;;;20.30;99.90;;;;;;5051013;28;20098;-73
2022/08/05 07:53:29;;;;;;;;;;;20.20;99.90;;;;;;5050495;28;20041;-73
2022/08/05 07:55:55;;;;;;;0.40;0.40;;;20.40;99.90;;;;;;5063081;28;19916;-72
2022/08/05 07:58:27;;;;;;;0.75;0.75;;;20.70;99.90;;;;;;5035606;28;20107;-73
2022/08/05 08:00:52;;;;;;;0.30;0.30;;;20.70;99.90;;;;;;5050527;28;20433;-74
2022/08/05 08:03:19;;;;;;;;;;;21.10;99.90;;;;;;5050535;28;20116;-72
2022/08/05 08:05:49;;;;;;;0.30;0.30;;;21.20;99.90;;;;;;5052303;28;19917;-72
2022/08/05 08:08:16;;;;;;;0.47;0.47;;;21.10;99.90;;;;;;5046855;28;20498;-72
2022/08/05 08:10:41;;;;;;;0.40;0.40;;;20.80;99.90;;;;;;5052251;28;20040;-72
2022/08/05 08:13:07;;;;;;;;;;;20.80;99.90;;;;;;5043357;28;20132;-73
2022/08/05 08:15:33;;;;;;;0.30;0.30;;;20.80;99.90;;;;;;5057177;28;20266;-73
2022/08/05 08:17:58;;;;;;;0.32;0.32;;;20.90;99.90;;;;;;5040344;28;20045;-73
2022/08/05 08:20:25;;;;;;;0.40;0.40;;;21.20;99.90;;;;;;5053239;28;20037;-73
2022/08/05 08:22:58;;;;;;;0.20;0.20;;;21.50;99.90;;;;;;5051256;28;20056;-72
2022/08/05 08:25:24;;;;;;;0.30;0.30;;;21.50;99.90;;;;;;5053044;28;20041;-72
2022/08/05 08:27:50;;;;;;;0.30;0.30;;;21.60;99.90;;;;;;5056823;28;20038;-72
2022/08/05 08:30:16;;;;;;;0.45;0.45;;;21.60;99.90;;;;;;5048834;28;20419;-73
2022/08/05 08:32:48;;;;;;;2.10;0.40;;;21.60;99.90;;;;;;5050242;28;20055;-73
2022/08/05 08:35:14;;;;;;;0.20;0.20;;;21.30;99.90;;;;;;5050394;28;20495;-74
2022/08/05 08:37:39;;;;;;;;;;;20.70;99.90;;;;;;5048564;28;20409;-73
2022/08/05 08:40:05;;;;;;;0.30;0.30;;;20.40;99.90;;;;;;5049707;28;20011;-74
2022/08/05 08:42:32;;;;;;;0.25;0.25;;;20.40;99.90;;;;;;5058747;28;20048;-73
2022/08/05 08:44:59;;;;;;;0.30;0.30;;;20.40;99.90;;;;;;5051908;28;20049;-73
2022/08/05 08:47:26;;;;;;;0.10;0.10;;;20.50;99.90;;;;;;5049924;28;20037;-73
2022/08/05 08:49:55;;;;;;;0.28;0.28;;;20.80;99.90;;;;;;5037874;28;20385;-72
2022/08/05 08:52:30;;;;;;;0.22;0.22;;;21.00;99.90;;;;;;5049876;28;20045;-72
2022/08/05 08:54:56;;;;;;;0.10;0.10;;;21.00;99.90;;;;;;5065738;28;20044;-75
2022/08/05 08:57:22;;;;;;;0.30;0.30;;;20.80;99.90;;;;;;5039051;28;20048;-72
2022/08/05 08:59:50;;;;;;;0.20;0.20;;;20.80;99.90;;;;;;5051123;28;20040;-73
2022/08/05 09:02:18;;;;;;;0.20;0.20;;;20.90;99.90;;;;;;5048465;28;20564;-72
2022/08/05 09:04:45;;;;;;;0.20;0.20;;;21.10;99.90;;;;;;5050817;28;20045;-74
2022/08/05 09:07:12;;;;;;;0.20;0.20;;;21.40;99.90;;;;;;5052674;28;20044;-73
2022/08/05 09:09:38;;;;;;;0.20;0.20;;;21.40;99.90;;;;;;5049657;28;20051;-73
2022/08/05 09:12:07;;;;;;;0.43;0.40;;;21.40;99.90;;;;;;5066231;28;20048;-73
2022/08/05 09:14:38;;;;;;;0.30;0.30;;;21.10;99.90;;;;;;5064208;28;20045;-72
2022/08/05 09:17:08;;;;;;;0.20;0.20;;;21.00;99.90;;;;;;5021047;28;20041;-73
2022/08/05 09:19:34;;;;;;;1.33;0.60;;;21.00;99.90;;;;;;5051004;28;20105;-72
2022/08/05 09:22:00;;;;;;;0.22;0.22;;;21.00;99.90;;;;;;5054155;28;20054;-72
2022/08/05 09:24:25;;;;;;;0.25;0.25;;;21.10;99.90;;;;;;5049830;28;20441;-73
2022/08/05 09:26:52;;;;;;;;;;;21.20;99.90;;;;;;5033729;28;20444;-72
2022/08/05 09:29:18;;;;;;;0.20;0.20;;;21.30;99.90;;;;;;5049568;28;19925;-72
2022/08/05 09:32:01;;;;;;;0.20;0.20;;;21.30;99.90;;;;;;5049985;28;20080;-72
2022/08/05 09:34:54;;;;;;;0.20;0.20;;;21.30;99.90;;;;;;5039560;28;20061;-72
2022/08/05 09:37:21;;;;;;;0.20;0.20;;;21.30;99.90;;;;;;5036662;28;20043;-72
2022/08/05 09:39:47;;;;;;;0.32;0.32;;;21.20;99.90;;;;;;5054440;28;20078;-72
2022/08/05 09:42:18;;;;;;;0.30;0.30;;;21.20;99.90;;;;;;5048743;28;20124;-73
2022/08/05 09:44:48;;;;;;;0.20;0.20;;;21.50;99.90;;;;;;5049030;28;20128;-73
2022/08/05 09:47:15;;;;;;;0.30;0.30;;;21.60;99.90;;;;;;5048575;28;20056;-72
2022/08/05 09:49:47;;;;;;;1.25;0.50;;;21.70;99.90;;;;;;5050212;28;20120;-73
2022/08/05 09:52:26;;;;;;;0.30;0.30;;;21.70;99.90;;;;;;5048744;28;20060;-73
2022/08/05 09:54:59;;;;;;;0.30;0.30;;;21.70;99.90;;;;;;5063366;28;20095;-73
2022/08/05 09:57:46;;;;;;;0.17;0.17;;;21.40;99.90;;;;;;5048948;28;20067;-73
2022/08/05 10:00:16;;;;;;;;;;;21.20;99.90;;;;;;5054756;28;20041;-73
2022/08/05 10:02:43;;;;;;;0.20;0.20;;;21.20;99.90;;;;;;5050691;28;19924;-73
2022/08/05 10:05:18;;;;;;;0.20;0.20;;;21.10;99.90;;;;;;5059287;28;20043;-72
2022/08/05 10:07:48;;;;;;;0.30;0.30;;;21.20;99.90;;;;;;5036933;28;20080;-73
2022/08/05 10:10:15;;;;;;;0.20;0.20;;;21.20;99.90;;;;;;5041661;28;20398;-72
2022/08/05 10:12:54;;;;;;;0.30;0.30;;;21.30;99.90;;;;;;5061431;28;20053;-72
2022/08/05 10:15:21;;;;;;;0.17;0.17;;;21.30;99.90;;;;;;5053747;28;20072;-72
2022/08/05 10:18:14;;;;;;;0.20;0.20;;;21.10;99.90;;;;;;5038874;28;20041;-72
2022/08/05 10:20:55;;;;;;;0.20;0.20;;;21.20;99.90;;;;;;5051563;28;20053;-72
2022/08/05 10:23:25;;;;;;;0.20;0.20;;;21.30;99.90;;;;;;5032821;28;20106;-72
2022/08/05 10:25:52;;;;;;;0.40;0.40;;;21.20;99.90;;;;;;5049452;28;20102;-72
2022/08/05 10:28:20;;;;;;;0.28;0.28;;;21.20;99.90;;;;;;5033718;28;20048;-72
2022/08/05 10:30:46;;;;;;;0.63;0.63;;;21.30;99.90;;;;;;5063206;28;20063;-73
2022/08/05 10:33:13;;;;;;;0.20;0.20;;;21.40;99.90;;;;;;5063982;28;20049;-73
2022/08/05 10:35:39;;;;;;;0.30;0.30;;;21.50;99.90;;;;;;5050037;28;20033;-73
2022/08/05 10:38:06;;;;;;;0.20;0.20;;;21.40;99.90;;;;;;5029816;28;20044;-73
2022/08/05 10:40:53;;;;;;;0.20;0.20;;;21.50;99.90;;;;;;5047025;28;20103;-73
2022/08/05 10:43:31;;;;;;;;;;;21.70;99.90;;;;;;5059929;28;20494;-72
2022/08/05 10:46:00;;;;;;;0.30;0.30;;;21.80;99.90;;;;;;5048630;28;20042;-72
2022/08/05 10:48:48;;;;;;;0.30;0.30;;;21.90;99.90;;;;;;5049650;28;20040;-72
2022/08/05 10:51:16;;;;;;;0.17;0.17;;;22.00;99.20;;;;;;5039479;28;20047;-72
2022/08/05 10:53:49;;;;;;;0.22;0.22;;;21.90;99.90;;;;;;5048680;28;20445;-72
2022/08/05 10:56:21;;;;;;;0.30;0.30;;;21.80;99.00;;;;;;5047911;28;20863;-72
2022/08/05 10:58:53;;;;;;;0.17;0.17;;;21.80;98.80;;;;;;5035049;28;20155;-73
2022/08/05 11:01:38;;;;;;;0.10;0.10;;;21.90;99.60;;;;;;5051423;28;20041;-71
2022/08/05 11:04:16;;;;;;;0.15;0.15;;;21.80;99.40;;;;;;5051457;28;20359;-72
2022/08/05 11:06:59;;;;;;;0.20;0.20;;;21.90;99.90;;;;;;5062364;28;20378;-71
2022/08/05 11:09:44;;;;;;;0.20;0.20;;;22.00;99.90;;;;;;5049052;28;20135;-72
2022/08/05 11:12:25;;;;;;;0.30;0.30;;;21.90;99.50;;;;;;5048018;28;20401;-72
2022/08/05 11:15:06;;;;;;;0.17;0.17;;;21.90;97.70;;;;;;5056486;28;20036;-72
2022/08/05 11:17:36;;;;;;;0.20;0.20;;;21.80;97.40;;;;;;5041353;28;20477;-72
2022/08/05 11:20:07;;;;;;;0.20;0.20;;;21.80;98.50;;;;;;5068196;28;20048;-72
2022/08/05 11:22:47;;;;;;;0.30;0.30;;;22.00;97.60;;;;;;5065560;28;20076;-73
2022/08/05 11:25:34;;;;;;;0.40;0.40;;;22.00;97.20;;;;;;5052749;28;20049;-72
2022/08/05 11:28:11;;;;;;;0.30;0.30;;;21.70;97.90;;;;;;5035710;28;20041;-72
2022/08/05 11:31:01;;;;;;;0.50;0.50;;;21.80;97.80;;;;;;5050094;28;20060;-72
2022/08/05 11:33:34;;;;;;;0.10;0.10;;;21.60;98.90;;;;;;5067539;28;20127;-72
2022/08/05 11:36:02;;;;;;;0.20;0.20;;;21.70;98.50;;;;;;5051015;28;20049;-72
2022/08/05 11:38:56;;;;;;;0.10;0.10;;;21.70;98.40;;;;;;5051781;28;20137;-71
2022/08/05 11:41:24;;;;;;;0.20;0.20;;;21.20;99.90;;;;;;5046684;28;20037;-71
2022/08/05 11:44:05;;;;;;;0.30;0.30;;;21.30;99.90;;;;;;5066353;28;20045;-71
2022/08/05 11:46:31;;;;;;;0.30;0.30;;;21.40;99.90;;;;;;5062468;28;20076;-72
2022/08/05 11:48:58;;;;;;;0.20;0.20;;;21.60;99.90;;;;;;5052887;28;20049;-72
2022/08/05 11:51:26;;;;;;;0.28;0.28;;;21.50;99.90;;;;;;5050559;28;20041;-72
2022/08/05 11:53:54;;;;;;;0.30;0.30;;;21.50;99.90;;;;;;5060687;28;20086;-73
2022/08/05 11:56:21;;;;;;;0.20;0.20;;;21.50;99.90;;;;;;5051267;28;20048;-72
2022/08/05 11:58:48;;;;;;;0.20;0.20;;;21.30;99.90;;;;;;5052178;28;20064;-72
2022/08/05 12:01:16;;;;;;;0.28;0.28;;;21.30;99.90;;;;;;5062587;28;20037;-73
2022/08/05 12:03:54;;;;;;;0.30;0.30;;;21.40;99.90;;;;;;5049778;28;20033;-73
2022/08/05 12:06:21;;;;;;;0.32;0.32;;;21.60;99.90;;;;;;5043715;28;20056;-72
2022/08/05 12:08:54;;;;;;;0.10;0.10;;;21.60;99.90;;;;;;5043586;28;20041;-72
2022/08/05 12:11:22;;;;;;;0.10;0.10;;;21.70;99.90;;;;;;5048725;28;20567;-72
2022/08/05 12:14:05;;;;;;;0.20;0.20;;;21.60;99.90;;;;;;5048712;28;20386;-73
2022/08/05 12:16:39;;;;;;;0.35;0.35;;;21.30;99.90;;;;;;5030661;28;20433;-71
2022/08/05 12:19:07;;;;;;;0.20;0.20;;;21.20;99.90;;;;;;5049783;28;20052;-71
2022/08/05 12:21:43;;;;;;;0.30;0.30;;;20.80;99.90;;;;;;5034718;28;20098;-73
2022/08/05 12:24:16;;;;;;;0.30;0.30;;;20.50;99.90;;;;;;5050566;28;20037;-71
2022/08/05 12:26:50;;;;;;;0.50;0.50;;;20.70;99.90;;;;;;5051253;28;20494;-72
2022/08/05 12:29:18;;;;;;;0.28;0.28;;;21.00;99.90;;;;;;5033378;28;20064;-72
2022/08/05 12:31:58;;;;;;;0.20;0.20;;;21.20;99.90;;;;;;5049657;28;20052;-71
2022/08/05 12:34:32;;;;;;;0.30;0.30;;;21.30;99.90;;;;;;5041021;28;20393;-71
2022/08/05 12:37:06;;;;;;;0.30;0.30;;;21.50;99.90;;;;;;5050092;28;20441;-73
2022/08/05 12:39:32;;;;;;;0.30;0.30;;;21.70;99.90;;;;;;5050352;28;20059;-72
2022/08/05 12:41:58;;;;;;;0.20;0.20;;;21.90;99.90;;;;;;5065880;28;20439;-70
2022/08/05 12:44:25;;;;;;;0.20;0.20;;;22.40;99.90;;;;;;5040895;28;20055;-73
2022/08/05 12:46:55;;;;;;;0.28;0.28;;;22.90;99.90;;;;;;5032460;28;20056;-71
2022/08/05 12:49:21;;;;;;;13.50;0.85;;;23.10;99.80;;;;;;5038014;28;20123;-71
2022/08/05 12:51:57;;;;;;;0.30;0.30;;;22.90;99.30;;;;;;5065004;28;20045;-71
2022/08/05 12:54:28;;;;;;;0.25;0.25;;;22.50;99.10;;;;;;5017259;28;20037;-71
2022/08/05 12:57:00;;;;;;;0.30;0.30;;;22.20;99.90;;;;;;5043288;28;20135;-72
2022/08/05 12:59:47;;;;;;;0.20;0.20;;;22.20;99.90;;;;;;5057014;28;20067;-71
2022/08/05 13:02:17;;;;;;;0.28;0.28;;;22.40;99.90;;;;;;5060466;28;20489;-72
2022/08/05 13:04:44;;;;;;;0.15;0.15;;;21.90;99.90;;;;;;5065539;28;20508;-73
2022/08/05 13:07:14;;;;;;;0.30;0.30;;;21.60;99.90;;;;;;5049074;28;20143;-71
2022/08/05 13:09:41;;;;;;;0.60;0.60;;;21.50;99.90;;;;;;5033100;28;20510;-72
2022/08/05 13:12:10;;;;;;;0.20;0.20;;;21.00;99.90;;;;;;5062539;28;20054;-72
2022/08/05 13:14:42;;;;;;;0.30;0.30;;;20.70;99.90;;;;;;5060929;28;20512;-72